createdAt,value
2022-11-06T00:01:32.634Z,0.50
2022-11-06T00:04:00.027Z,0.60
2022-11-06T00:06:45.980Z,0.53
2022-11-06T00:09:14.157Z,0.97
2022-11-06T00:11:42.265Z,0.63
2022-11-06T00:14:09.932Z,0.50
2022-11-06T00:16:40.953Z,0.70
2022-11-06T00:19:08.896Z,0.60
2022-11-06T00:21:37.704Z,0.80
2022-11-06T00:24:06.883Z,0.50
2022-11-06T00:26:34.923Z,0.70
2022-11-06T00:29:02.744Z,0.30
2022-11-06T00:31:31.818Z,0.60
2022-11-06T00:33:59.974Z,0.50
2022-11-06T00:36:30.339Z,0.40
2022-11-06T00:38:58.180Z,0.50
2022-11-06T00:41:25.531Z,0.57
2022-11-06T00:43:57.130Z,0.40
2022-11-06T00:46:24.933Z,0.40
2022-11-06T00:48:53.161Z,0.50
2022-11-06T00:51:21.911Z,0.50
2022-11-06T00:53:49.625Z,0.40
2022-11-06T00:56:18.465Z,0.43
2022-11-06T00:58:46.604Z,0.40
2022-11-06T01:01:16.159Z,0.40
2022-11-06T01:03:45.221Z,0.70
2022-11-06T01:06:14.137Z,0.70
2022-11-06T01:08:41.885Z,0.37
2022-11-06T01:11:13.605Z,0.50
2022-11-06T01:13:41.229Z,0.60
2022-11-06T01:16:09.758Z,0.47
2022-11-06T01:18:37.997Z,0.77
2022-11-06T01:21:09.915Z,0.60
2022-11-06T01:23:37.235Z,0.60
2022-11-06T01:26:06.020Z,0.37
2022-11-06T01:28:33.523Z,0.40
2022-11-06T01:31:05.166Z,0.50
2022-11-06T01:33:35.665Z,0.50
2022-11-06T01:36:03.105Z,0.43
2022-11-06T01:38:30.561Z,0.30
2022-11-06T01:40:58.177Z,0.57
2022-11-06T01:43:44.469Z,0.47
2022-11-06T01:46:12.224Z,0.57
2022-11-06T01:48:40.680Z,0.60
2022-11-06T01:51:08.984Z,0.60
2022-11-06T01:53:36.710Z,0.50
2022-11-06T01:56:05.750Z,0.60
2022-11-06T01:58:34.530Z,0.60
2022-11-06T02:01:02.864Z,0.60
2022-11-06T02:03:30.334Z,0.40
2022-11-06T02:05:58.109Z,0.40
2022-11-06T02:08:26.312Z,0.60
2022-11-06T02:10:53.824Z,0.40
2022-11-06T02:13:27.888Z,0.40
2022-11-06T02:15:58.243Z,0.43
2022-11-06T02:18:31.433Z,0.40
2022-11-06T02:21:04.856Z,2.03
2022-11-06T02:23:51.043Z,0.60
2022-11-06T02:26:24.429Z,0.80
2022-11-06T02:28:58.244Z,0.30
2022-11-06T02:31:27.702Z,0.43
2022-11-06T02:34:04.076Z,0.60
2022-11-06T02:36:33.729Z,0.30
2022-11-06T02:39:03.576Z,0.40
2022-11-06T02:41:32.817Z,0.33
2022-11-06T02:44:00.859Z,0.40
2022-11-06T02:46:40.998Z,0.47
2022-11-06T02:49:10.356Z,0.40
2022-11-06T02:51:41.012Z,0.50
2022-11-06T02:54:10.344Z,0.50
2022-11-06T02:56:39.902Z,0.50
2022-11-06T02:59:10.816Z,0.40
2022-11-06T03:01:40.947Z,0.40
2022-11-06T03:04:12.944Z,0.50
2022-11-06T03:06:42.933Z,0.33
2022-11-06T03:09:13.243Z,0.50
2022-11-06T03:11:40.647Z,0.30
2022-11-06T03:14:20.043Z,0.70
2022-11-06T03:16:47.370Z,0.50
2022-11-06T03:19:17.815Z,0.30
2022-11-06T03:21:54.160Z,0.40
2022-11-06T03:24:31.063Z,0.30
2022-11-06T03:26:59.583Z,0.40
2022-11-06T03:29:26.931Z,0.37
2022-11-06T03:32:02.515Z,0.40
2022-11-06T03:34:32.956Z,0.40
2022-11-06T03:37:04.700Z,0.50
2022-11-06T03:39:38.682Z,0.40
2022-11-06T03:42:07.514Z,0.40
2022-11-06T03:44:36.952Z,0.53
2022-11-06T03:47:09.973Z,0.50
2022-11-06T03:49:40.195Z,0.33
2022-11-06T03:52:17.262Z,0.40
2022-11-06T03:55:13.948Z,0.60
2022-11-06T03:57:44.751Z,0.43
2022-11-06T04:00:13.002Z,0.27
2022-11-06T04:02:42.306Z,0.20
2022-11-06T04:05:16.427Z,0.40
2022-11-06T04:08:08.954Z,0.50
2022-11-06T04:10:55.735Z,0.50
2022-11-06T04:13:42.412Z,0.30
2022-11-06T04:16:10.624Z,0.47
2022-11-06T04:18:37.912Z,0.40
2022-11-06T04:21:23.165Z,0.30
2022-11-06T04:24:27.273Z,0.30
2022-11-06T04:27:12.993Z,0.40
2022-11-06T04:29:40.423Z,0.37
2022-11-06T04:32:22.749Z,0.50
2022-11-06T04:34:57.459Z,0.47
2022-11-06T04:37:38.399Z,0.30
2022-11-06T04:40:28.946Z,0.30
2022-11-06T04:43:13.573Z,0.40
2022-11-06T04:45:42.983Z,0.40
2022-11-06T04:48:12.174Z,0.40
2022-11-06T04:50:45.619Z,0.20
2022-11-06T04:53:13.618Z,0.30
2022-11-06T04:55:52.227Z,0.30
2022-11-06T04:58:19.579Z,0.40
2022-11-06T05:00:48.033Z,0.40
2022-11-06T05:03:16.285Z,0.50
2022-11-06T05:05:43.882Z,0.53
2022-11-06T05:08:15.874Z,0.90
2022-11-06T05:10:43.869Z,1.67
2022-11-06T05:13:11.698Z,0.90
2022-11-06T05:15:39.463Z,0.57
2022-11-06T05:18:06.841Z,0.40
2022-11-06T05:20:34.972Z,0.30
2022-11-06T05:23:02.391Z,0.70
2022-11-06T05:25:33.859Z,0.53
2022-11-06T05:28:01.740Z,0.57
2022-11-06T05:30:29.403Z,0.50
2022-11-06T05:32:56.790Z,0.50
2022-11-06T05:35:24.425Z,0.37
2022-11-06T05:37:52.074Z,0.40
2022-11-06T05:40:22.323Z,0.40
2022-11-06T05:42:49.784Z,0.80
2022-11-06T05:45:17.200Z,0.63
2022-11-06T05:47:44.564Z,0.40
2022-11-06T05:50:11.913Z,0.70
2022-11-06T05:52:39.261Z,0.70
2022-11-06T05:55:11.651Z,0.80
2022-11-06T05:57:40.734Z,0.50
2022-11-06T06:00:08.626Z,0.70
2022-11-06T06:02:37.197Z,0.40
2022-11-06T06:05:04.801Z,0.50
2022-11-06T06:07:32.305Z,0.50
2022-11-06T06:09:59.666Z,0.40
2022-11-06T06:12:27.009Z,0.40
2022-11-06T06:14:54.739Z,0.30
2022-11-06T06:17:22.342Z,0.40
2022-11-06T06:19:49.734Z,0.20
2022-11-06T06:22:17.186Z,0.30
2022-11-06T06:24:44.652Z,0.60
2022-11-06T06:27:12.062Z,0.60
2022-11-06T06:29:39.366Z,0.40
2022-11-06T06:32:06.821Z,0.30
2022-11-06T06:34:34.198Z,0.50
2022-11-06T06:37:04.862Z,0.60
2022-11-06T06:39:32.113Z,0.40
2022-11-06T06:41:59.454Z,0.47
2022-11-06T06:44:26.838Z,0.40
2022-11-06T06:46:54.231Z,0.70
2022-11-06T06:49:21.661Z,0.70
2022-11-06T06:51:49.438Z,0.50
2022-11-06T06:54:17.132Z,1.27
2022-11-06T06:56:44.517Z,2.00
2022-11-06T06:59:11.763Z,1.40
2022-11-06T07:01:39.306Z,0.83
2022-11-06T07:04:06.885Z,1.03
2022-11-06T07:06:34.334Z,1.10
2022-11-06T07:09:01.568Z,0.80
2022-11-06T07:11:28.912Z,1.13
2022-11-06T07:13:56.275Z,1.60
2022-11-06T07:16:27.593Z,1.27
2022-11-06T07:18:54.974Z,0.90
2022-11-06T07:21:22.690Z,1.00
2022-11-06T07:23:50.118Z,1.20
2022-11-06T07:26:17.603Z,1.70
2022-11-06T07:28:45.114Z,0.70
2022-11-06T07:31:15.497Z,0.80
2022-11-06T07:33:42.808Z,0.60
2022-11-06T07:36:11.699Z,0.80
2022-11-06T07:38:40.273Z,1.20
2022-11-06T07:41:15.044Z,1.60
2022-11-06T07:43:43.153Z,1.00
2022-11-06T07:46:11.794Z,0.47
2022-11-06T07:48:39.802Z,0.50
2022-11-06T07:51:08.444Z,0.70
2022-11-06T07:53:35.930Z,0.90
2022-11-06T07:56:03.318Z,0.80
2022-11-06T07:58:30.838Z,0.80
2022-11-06T08:00:59.153Z,0.90
2022-11-06T08:03:27.156Z,0.70
2022-11-06T08:05:55.634Z,0.80
2022-11-06T08:08:25.863Z,0.60
2022-11-06T08:10:53.950Z,0.53
2022-11-06T08:13:21.387Z,0.60
2022-11-06T08:15:48.840Z,0.40
2022-11-06T08:18:16.562Z,0.60
2022-11-06T08:20:44.344Z,0.57
2022-11-06T08:23:12.995Z,0.40
2022-11-06T08:25:40.978Z,0.70
2022-11-06T08:28:08.413Z,0.40
2022-11-06T08:30:35.785Z,0.30
2022-11-06T08:33:04.833Z,0.40
2022-11-06T08:35:32.614Z,0.20
2022-11-06T08:37:59.896Z,0.60
2022-11-06T08:40:30.837Z,0.80
2022-11-06T08:43:06.273Z,1.10
2022-11-06T08:45:33.847Z,25.03
2022-11-06T08:48:04.715Z,32.70
2022-11-06T08:50:32.819Z,12.10
2022-11-06T08:53:04.506Z,3.30
2022-11-06T08:55:32.215Z,3.27
2022-11-06T08:57:59.741Z,2.37
2022-11-06T09:00:27.253Z,0.60
2022-11-06T09:03:01.564Z,1.07
2022-11-06T09:05:29.913Z,1.50
2022-11-06T09:07:58.018Z,1.20
2022-11-06T09:10:26.168Z,0.70
2022-11-06T09:12:53.593Z,0.87
2022-11-06T09:15:21.245Z,0.60
2022-11-06T09:17:49.658Z,0.70
2022-11-06T09:20:18.338Z,0.50
2022-11-06T09:22:46.364Z,0.50
2022-11-06T09:25:13.733Z,0.60
2022-11-06T09:27:57.383Z,0.50
2022-11-06T09:30:27.056Z,0.60
2022-11-06T09:32:55.861Z,0.50
2022-11-06T09:35:24.243Z,0.40
2022-11-06T09:37:51.995Z,0.50
2022-11-06T09:40:19.359Z,0.80
2022-11-06T09:43:16.409Z,0.30
2022-11-06T09:45:44.080Z,0.40
2022-11-06T09:48:11.454Z,0.80
2022-11-06T09:50:53.681Z,0.50
2022-11-06T09:53:26.016Z,0.70
2022-11-06T09:55:53.934Z,1.10
2022-11-06T09:58:24.513Z,1.40
2022-11-06T10:00:53.051Z,1.67
2022-11-06T10:03:24.792Z,1.40
2022-11-06T10:05:53.309Z,1.40
2022-11-06T10:08:27.466Z,0.70
2022-11-06T10:11:06.923Z,1.63
2022-11-06T10:13:34.323Z,0.90
2022-11-06T10:16:07.625Z,0.70
2022-11-06T10:18:53.443Z,0.50
2022-11-06T10:21:20.773Z,0.40
2022-11-06T10:23:48.425Z,0.43
2022-11-06T10:26:34.453Z,0.37
2022-11-06T10:29:01.894Z,0.50
2022-11-06T10:31:29.205Z,0.40
2022-11-06T10:34:02.808Z,0.30
2022-11-06T10:36:49.931Z,0.50
2022-11-06T10:39:25.667Z,0.50
2022-11-06T10:41:59.894Z,0.40
2022-11-06T10:44:33.115Z,0.60
2022-11-06T10:47:04.688Z,0.50
2022-11-06T10:49:41.054Z,0.40
2022-11-06T10:52:20.607Z,0.40
2022-11-06T10:54:47.874Z,0.60
2022-11-06T10:57:27.665Z,0.57
2022-11-06T10:59:55.461Z,0.70
2022-11-06T11:02:25.963Z,0.60
2022-11-06T11:04:57.663Z,0.40
2022-11-06T11:07:26.412Z,0.40
2022-11-06T11:09:53.773Z,0.40
2022-11-06T11:12:28.873Z,0.60
2022-11-06T11:15:25.753Z,0.40
2022-11-06T11:18:09.597Z,0.40
2022-11-06T11:20:37.843Z,0.50
2022-11-06T11:23:13.632Z,0.30
2022-11-06T11:25:42.136Z,0.40
2022-11-06T11:28:21.052Z,0.47
2022-11-06T11:31:11.549Z,0.40
2022-11-06T11:33:40.279Z,0.40
2022-11-06T11:36:08.244Z,0.33
2022-11-06T11:38:36.897Z,0.40
2022-11-06T11:41:27.300Z,0.40
2022-11-06T11:44:03.914Z,0.60
2022-11-06T11:46:31.838Z,0.40
2022-11-06T11:48:59.494Z,0.60
2022-11-06T11:51:29.181Z,0.40
2022-11-06T11:53:59.512Z,0.40
2022-11-06T11:56:58.247Z,0.30
2022-11-06T11:59:22.516Z,0.37
2022-11-06T12:01:50.121Z,0.40
2022-11-06T12:04:26.005Z,0.57
2022-11-06T12:06:58.224Z,0.60
2022-11-06T12:09:26.334Z,1.17
2022-11-06T12:11:55.231Z,0.80
2022-11-06T12:14:22.612Z,0.70
2022-11-06T12:16:51.187Z,0.43
2022-11-06T12:19:20.139Z,0.60
2022-11-06T12:21:50.354Z,0.40
2022-11-06T12:24:21.475Z,0.47
2022-11-06T12:27:11.886Z,0.60
2022-11-06T12:29:45.575Z,0.50
2022-11-06T12:32:15.704Z,0.47
2022-11-06T12:34:49.184Z,0.38
2022-11-06T12:37:19.700Z,0.67
2022-11-06T12:39:52.172Z,0.50
2022-11-06T12:42:21.211Z,0.40
2022-11-06T12:44:48.962Z,0.45
2022-11-06T12:47:26.602Z,0.40
2022-11-06T12:50:17.823Z,0.40
2022-11-06T12:53:00.791Z,0.40
2022-11-06T12:55:33.154Z,0.40
2022-11-06T12:58:12.679Z,0.40
2022-11-06T13:01:03.538Z,0.32
2022-11-06T13:03:39.897Z,0.45
2022-11-06T13:06:13.646Z,0.32
2022-11-06T13:08:46.816Z,0.38
2022-11-06T13:11:23.210Z,0.30
2022-11-06T13:14:08.172Z,0.50
2022-11-06T13:16:38.653Z,0.50
2022-11-06T13:19:10.522Z,0.32
2022-11-06T13:21:39.039Z,0.20
2022-11-06T13:24:16.123Z,0.30
2022-11-06T13:26:47.417Z,0.40
2022-11-06T13:29:16.786Z,0.30
2022-11-06T13:31:47.995Z,0.30
2022-11-06T13:34:22.970Z,0.40
2022-11-06T13:36:50.509Z,0.40
2022-11-06T13:39:21.337Z,0.33
2022-11-06T13:41:48.716Z,0.60
2022-11-06T13:44:16.753Z,0.50
2022-11-06T13:47:03.291Z,0.30
2022-11-06T13:49:53.391Z,0.43
2022-11-06T13:52:32.655Z,0.50
2022-11-06T13:55:12.134Z,0.90
2022-11-06T13:57:59.288Z,0.63
2022-11-06T14:00:26.720Z,0.63
2022-11-06T14:02:54.076Z,0.70
2022-11-06T14:05:40.191Z,0.60
2022-11-06T14:08:12.291Z,0.50
2022-11-06T14:10:46.423Z,0.63
2022-11-06T14:13:14.910Z,0.63
2022-11-06T14:15:42.743Z,0.93
2022-11-06T14:18:15.099Z,0.70
2022-11-06T14:20:42.764Z,0.60
2022-11-06T14:23:28.847Z,0.50
2022-11-06T14:25:59.274Z,0.70
2022-11-06T14:28:34.027Z,0.60
2022-11-06T14:31:22.695Z,0.80
2022-11-06T14:33:51.664Z,0.70
2022-11-06T14:36:25.060Z,0.80
2022-11-06T14:38:53.188Z,0.70
2022-11-06T14:41:35.538Z,0.60
2022-11-06T14:44:04.831Z,0.97
2022-11-06T14:46:32.679Z,0.83
2022-11-06T14:49:29.484Z,0.90
2022-11-06T14:51:59.236Z,0.83
2022-11-06T14:54:26.709Z,1.10
2022-11-06T14:56:55.003Z,0.80
2022-11-06T14:59:23.633Z,0.97
2022-11-06T15:01:59.761Z,1.13
2022-11-06T15:04:29.227Z,0.83
2022-11-06T15:07:07.228Z,1.00
2022-11-06T15:09:40.350Z,0.90
2022-11-06T15:12:08.518Z,0.90
2022-11-06T15:14:35.909Z,0.90
2022-11-06T15:17:03.328Z,1.10
2022-11-06T15:19:36.080Z,0.70
2022-11-06T15:22:16.158Z,0.80
2022-11-06T15:24:45.082Z,1.73
2022-11-06T15:27:25.214Z,1.17
2022-11-06T15:29:53.594Z,0.77
2022-11-06T15:32:23.900Z,0.70
2022-11-06T15:34:57.375Z,0.80
2022-11-06T15:37:28.294Z,0.83
2022-11-06T15:40:01.033Z,0.87
2022-11-06T15:42:30.354Z,0.90
2022-11-06T15:45:20.328Z,0.70
2022-11-06T15:47:54.730Z,0.87
2022-11-06T15:50:22.192Z,0.80
2022-11-06T15:52:49.934Z,0.80
2022-11-06T15:55:26.054Z,0.60
2022-11-06T15:57:53.987Z,0.63
2022-11-06T16:00:23.785Z,0.60
2022-11-06T16:02:52.477Z,0.70
2022-11-06T16:05:21.548Z,0.70
2022-11-06T16:07:49.342Z,0.80
2022-11-06T16:10:17.777Z,0.90
2022-11-06T16:12:45.373Z,0.90
2022-11-06T16:15:31.397Z,0.90
2022-11-06T16:18:06.169Z,0.73
2022-11-06T16:20:36.401Z,0.60
2022-11-06T16:23:04.838Z,0.60
2022-11-06T16:25:32.256Z,1.30
2022-11-06T16:27:59.698Z,1.20
2022-11-06T16:30:27.145Z,1.10
2022-11-06T16:32:54.477Z,0.90
2022-11-06T16:35:32.148Z,0.80
2022-11-06T16:38:39.861Z,0.80
2022-11-06T16:41:07.629Z,0.63
2022-11-06T16:43:35.054Z,0.70
2022-11-06T16:46:08.104Z,0.77
2022-11-06T16:48:38.641Z,0.90
2022-11-06T16:51:07.677Z,0.80
2022-11-06T16:53:47.485Z,1.03
2022-11-06T16:56:15.343Z,0.70
2022-11-06T16:58:49.130Z,0.70
2022-11-06T17:01:20.437Z,0.80
2022-11-06T17:03:50.774Z,1.27
2022-11-06T17:06:23.089Z,0.90
2022-11-06T17:09:03.576Z,1.43
2022-11-06T17:11:32.694Z,1.03
2022-11-06T17:14:00.202Z,1.00
2022-11-06T17:16:28.836Z,0.93
2022-11-06T17:18:56.298Z,1.23
2022-11-06T17:21:25.234Z,1.13
2022-11-06T17:23:53.127Z,1.20
2022-11-06T17:26:30.423Z,1.30
2022-11-06T17:28:58.576Z,1.17
2022-11-06T17:31:26.264Z,1.10
2022-11-06T17:33:54.354Z,1.23
2022-11-06T17:36:25.109Z,1.00
2022-11-06T17:38:53.325Z,1.10
2022-11-06T17:41:30.251Z,0.80
2022-11-06T17:44:02.054Z,0.80
2022-11-06T17:46:30.936Z,0.43
2022-11-06T17:48:58.359Z,0.90
2022-11-06T17:51:44.893Z,0.70
2022-11-06T17:54:12.615Z,1.23
2022-11-06T17:56:40.042Z,1.20
2022-11-06T17:59:09.171Z,0.90
2022-11-06T18:01:36.926Z,0.80
2022-11-06T18:04:04.533Z,1.33
2022-11-06T18:06:32.336Z,1.40
2022-11-06T18:09:00.638Z,1.27
2022-11-06T18:11:28.449Z,1.10
2022-11-06T18:13:56.445Z,0.90
2022-11-06T18:16:27.637Z,0.77
2022-11-06T18:18:55.537Z,1.00
2022-11-06T18:21:22.907Z,0.93
2022-11-06T18:23:50.316Z,1.00
2022-11-06T18:26:17.916Z,1.13
2022-11-06T18:28:45.339Z,1.30
2022-11-06T18:31:12.703Z,1.30
2022-11-06T18:33:40.333Z,1.23
2022-11-06T18:36:09.130Z,1.10
2022-11-06T18:38:37.223Z,1.00
2022-11-06T18:41:11.074Z,1.13
2022-11-06T18:43:38.803Z,1.20
2022-11-06T18:46:07.358Z,1.20
2022-11-06T18:48:34.747Z,1.20
2022-11-06T18:51:33.872Z,1.10
2022-11-06T18:54:04.785Z,0.80
2022-11-06T18:56:33.176Z,0.93
2022-11-06T18:59:01.098Z,0.90
2022-11-06T19:01:29.806Z,0.90
2022-11-06T19:03:57.320Z,0.80
2022-11-06T19:06:24.738Z,1.20
2022-11-06T19:08:52.202Z,1.57
2022-11-06T19:11:21.105Z,1.47
2022-11-06T19:13:48.883Z,1.63
2022-11-06T19:16:19.534Z,1.50
2022-11-06T19:21:30.619Z,1.60
2022-11-06T19:24:04.537Z,1.70
2022-11-06T19:26:33.844Z,1.20
2022-11-06T19:29:01.705Z,1.17
2022-11-06T19:31:29.957Z,1.53
2022-11-06T19:33:58.257Z,1.30
2022-11-06T19:36:25.797Z,1.00
2022-11-06T19:38:53.478Z,1.17
2022-11-06T19:41:23.876Z,1.10
2022-11-06T19:43:51.291Z,1.77
2022-11-06T19:46:24.724Z,1.10
2022-11-06T19:48:54.907Z,1.27
2022-11-06T19:51:22.320Z,1.40
2022-11-06T19:53:53.102Z,1.73
2022-11-06T19:56:20.652Z,1.40
2022-11-06T19:58:50.249Z,1.40
2022-11-06T20:01:17.746Z,1.50
2022-11-06T20:03:45.268Z,1.47
2022-11-06T20:06:13.465Z,3.20
2022-11-06T20:08:44.029Z,3.30
2022-11-06T20:11:13.103Z,2.03
2022-11-06T20:13:41.053Z,0.90
2022-11-06T20:16:09.642Z,0.93
2022-11-06T20:18:37.501Z,0.90
2022-11-06T20:21:06.739Z,0.80
2022-11-06T20:23:34.654Z,0.83
2022-11-06T20:26:02.295Z,1.20
2022-11-06T20:28:29.920Z,1.30
2022-11-06T20:30:58.572Z,1.20
2022-11-06T20:33:25.891Z,1.03
2022-11-06T20:35:53.298Z,1.00
2022-11-06T20:38:20.914Z,0.90
2022-11-06T20:40:48.297Z,1.00
2022-11-06T20:43:16.538Z,0.70
2022-11-06T20:45:44.293Z,0.67
2022-11-06T20:48:11.719Z,0.70
2022-11-06T20:50:39.124Z,0.80
2022-11-06T20:53:06.554Z,0.90
2022-11-06T20:55:33.913Z,0.93
2022-11-06T20:58:01.322Z,0.90
2022-11-06T21:00:28.878Z,1.00
2022-11-06T21:03:01.552Z,0.97
2022-11-06T21:05:29.429Z,1.07
2022-11-06T21:07:56.741Z,1.00
2022-11-06T21:10:24.049Z,0.80
2022-11-06T21:12:51.456Z,1.07
2022-11-06T21:15:18.799Z,0.90
2022-11-06T21:17:49.338Z,0.90
2022-11-06T21:20:22.461Z,0.90
2022-11-06T21:22:50.311Z,0.80
2022-11-06T21:25:17.728Z,0.83
2022-11-06T21:27:45.116Z,0.97
2022-11-06T21:30:12.619Z,1.10
2022-11-06T21:32:39.964Z,0.83
2022-11-06T21:35:07.622Z,1.00
2022-11-06T21:37:35.027Z,1.17
2022-11-06T21:40:02.466Z,1.10
2022-11-06T21:42:29.943Z,1.00
2022-11-06T21:44:57.386Z,0.97
2022-11-06T21:47:24.841Z,0.83
2022-11-06T21:49:55.062Z,1.37
2022-11-06T21:52:41.146Z,0.90
2022-11-06T21:55:27.636Z,1.00
2022-11-06T21:57:55.063Z,1.20
2022-11-06T22:00:22.429Z,1.03
2022-11-06T22:02:51.368Z,0.87
2022-11-06T22:05:18.796Z,0.90
2022-11-06T22:07:46.198Z,0.90
2022-11-06T22:10:13.633Z,1.00
2022-11-06T22:12:41.132Z,1.23
2022-11-06T22:15:08.883Z,1.10
2022-11-06T22:17:36.175Z,0.90
2022-11-06T22:20:04.406Z,1.00
2022-11-06T22:22:31.873Z,0.80
2022-11-06T22:24:59.207Z,0.83
2022-11-06T22:27:26.570Z,0.80
2022-11-06T22:29:55.083Z,0.93
2022-11-06T22:32:22.390Z,1.10
2022-11-06T22:34:49.735Z,1.00
2022-11-06T22:37:17.137Z,0.93
2022-11-06T22:39:44.449Z,1.10
2022-11-06T22:42:12.443Z,0.87
2022-11-06T22:44:39.936Z,0.80
2022-11-06T22:47:07.732Z,0.80
2022-11-06T22:49:35.111Z,0.83
2022-11-06T22:52:02.454Z,1.10
2022-11-06T22:54:29.852Z,0.80
2022-11-06T22:56:57.226Z,0.87
2022-11-06T22:59:24.623Z,1.00
2022-11-06T23:01:51.986Z,0.93
2022-11-06T23:04:19.376Z,1.00
2022-11-06T23:06:46.858Z,1.00
2022-11-06T23:09:14.558Z,1.30
2022-11-06T23:11:41.892Z,1.07
2022-11-06T23:14:09.666Z,1.23
2022-11-06T23:16:55.956Z,1.17
2022-11-06T23:19:23.796Z,0.90
2022-11-06T23:21:51.208Z,1.00
2022-11-06T23:24:18.574Z,0.93
2022-11-06T23:26:45.993Z,1.10
2022-11-06T23:29:13.402Z,0.80
2022-11-06T23:31:41.389Z,0.80
2022-11-06T23:34:08.730Z,0.97
2022-11-06T23:36:36.129Z,1.00
2022-11-06T23:39:03.520Z,0.90
2022-11-06T23:41:43.588Z,0.97
2022-11-06T23:44:30.905Z,1.00
2022-11-06T23:46:58.643Z,1.33
2022-11-06T23:49:26.165Z,0.90
2022-11-06T23:51:53.613Z,0.70
2022-11-06T23:54:20.981Z,0.60
2022-11-06T23:56:51.497Z,0.60
2022-11-06T23:59:18.865Z,0.60
